createdAt,value
2018-08-04T00:01:04.159Z,24.30
2018-08-04T00:03:33.552Z,24.40
2018-08-04T00:06:02.048Z,24.30
2018-08-04T00:08:30.992Z,24.30
2018-08-04T00:11:00.333Z,24.10
2018-08-04T00:13:29.012Z,23.90
2018-08-04T00:15:57.714Z,24.00
2018-08-04T00:18:26.339Z,24.00
2018-08-04T00:20:55.113Z,24.00
2018-08-04T00:23:23.911Z,24.10
2018-08-04T00:25:52.502Z,24.10
2018-08-04T00:28:21.284Z,24.00
2018-08-04T00:30:50.072Z,24.00
2018-08-04T00:33:18.649Z,23.90
2018-08-04T00:35:47.807Z,23.80
2018-08-04T00:38:16.353Z,23.80
2018-08-04T00:40:45.523Z,23.80
2018-08-04T00:43:14.221Z,23.80
2018-08-04T00:45:43.455Z,23.80
2018-08-04T00:48:12.004Z,23.80
2018-08-04T00:50:40.425Z,23.80
2018-08-04T00:55:37.789Z,23.90
2018-08-04T00:58:06.526Z,23.90
2018-08-04T01:00:41.820Z,23.80
2018-08-04T01:03:10.419Z,23.80
2018-08-04T01:05:38.957Z,23.80
2018-08-04T01:08:07.433Z,23.80
2018-08-04T01:10:36.332Z,23.80
2018-08-04T01:13:04.838Z,23.80
2018-08-04T01:15:34.172Z,23.80
2018-08-04T01:18:02.758Z,23.80
2018-08-04T01:20:31.287Z,23.80
2018-08-04T01:22:59.874Z,23.70
2018-08-04T01:25:28.347Z,23.60
2018-08-04T01:27:56.929Z,23.60
2018-08-04T01:30:25.463Z,23.50
2018-08-04T01:32:53.958Z,23.50
2018-08-04T01:35:23.129Z,23.50
2018-08-04T01:37:51.867Z,23.50
2018-08-04T01:40:20.624Z,23.50
2018-08-04T01:42:49.517Z,23.60
2018-08-04T01:45:18.005Z,23.60
2018-08-04T01:47:46.985Z,23.60
2018-08-04T01:50:15.516Z,23.50
2018-08-04T01:52:44.116Z,23.50
2018-08-04T01:55:12.837Z,23.40
2018-08-04T02:00:09.817Z,23.40
2018-08-04T02:02:38.540Z,23.10
2018-08-04T02:05:07.493Z,22.90
2018-08-04T02:07:35.947Z,22.90
2018-08-04T02:10:04.420Z,23.00
2018-08-04T02:12:33.157Z,23.00
2018-08-04T02:15:01.805Z,23.00
2018-08-04T02:17:30.257Z,23.00
2018-08-04T02:19:58.798Z,23.00
2018-08-04T02:22:27.205Z,23.00
2018-08-04T02:24:55.778Z,23.00
2018-08-04T02:27:24.274Z,23.00
2018-08-04T02:29:52.712Z,22.90
2018-08-04T02:32:21.517Z,22.90
2018-08-04T02:34:50.066Z,22.90
2018-08-04T02:37:18.468Z,22.90
2018-08-04T02:39:46.990Z,22.60
2018-08-04T02:44:50.299Z,22.70
2018-08-04T02:47:18.745Z,22.70
2018-08-04T02:49:47.309Z,22.70
2018-08-04T02:52:15.752Z,22.70
2018-08-04T02:54:44.391Z,22.70
2018-08-04T02:57:13.367Z,22.60
2018-08-04T02:59:41.956Z,22.50
2018-08-04T03:02:10.449Z,22.50
2018-08-04T03:04:39.015Z,22.40
2018-08-04T03:07:07.508Z,22.40
2018-08-04T03:09:36.059Z,22.30
2018-08-04T03:12:05.113Z,22.40
2018-08-04T03:14:34.221Z,22.30
2018-08-04T03:17:02.805Z,22.20
2018-08-04T03:19:31.355Z,22.20
2018-08-04T03:22:00.495Z,22.20
2018-08-04T03:24:28.996Z,22.20
2018-08-04T03:26:57.524Z,22.20
2018-08-04T03:29:25.992Z,22.00
2018-08-04T03:31:55.001Z,21.90
2018-08-04T03:34:26.487Z,21.90
2018-08-04T03:36:55.049Z,21.90
2018-08-04T03:39:24.355Z,21.90
2018-08-04T03:41:52.784Z,21.90
2018-08-04T03:44:21.317Z,21.70
2018-08-04T03:46:49.748Z,21.60
2018-08-04T03:49:18.353Z,21.60
2018-08-04T03:51:47.428Z,21.60
2018-08-04T03:54:16.042Z,21.60
2018-08-04T03:56:44.429Z,21.60
2018-08-04T03:59:12.890Z,21.70
2018-08-04T04:01:41.695Z,21.80
2018-08-04T04:04:10.154Z,21.80
2018-08-04T04:06:39.373Z,21.90
2018-08-04T04:09:09.354Z,21.90
2018-08-04T04:11:37.931Z,21.80
2018-08-04T04:14:06.368Z,21.80
2018-08-04T04:16:35.023Z,21.80
2018-08-04T04:19:03.713Z,21.60
2018-08-04T04:21:32.339Z,21.60
2018-08-04T04:24:00.865Z,21.60
2018-08-04T04:26:29.471Z,21.70
2018-08-04T04:28:58.449Z,21.80
2018-08-04T04:31:27.665Z,21.80
2018-08-04T04:33:56.102Z,21.90
2018-08-04T04:36:24.565Z,21.90
2018-08-04T04:38:53.057Z,21.90
2018-08-04T04:41:21.725Z,21.70
2018-08-04T04:46:19.062Z,21.60
2018-08-04T04:48:47.870Z,21.60
2018-08-04T04:51:16.470Z,21.80
2018-08-04T04:56:12.991Z,21.90
2018-08-04T04:58:41.568Z,22.00
2018-08-04T05:01:10.176Z,22.00
2018-08-04T05:03:38.617Z,22.10
2018-08-04T05:06:07.189Z,22.20
2018-08-04T05:08:36.091Z,22.30
2018-08-04T05:11:04.746Z,22.30
2018-08-04T05:13:33.296Z,22.30
2018-08-04T05:16:01.854Z,22.40
2018-08-04T05:18:30.304Z,22.50
2018-08-04T05:20:58.767Z,22.50
2018-08-04T05:23:34.557Z,22.50
2018-08-04T05:26:03.296Z,22.50
2018-08-04T05:28:31.801Z,22.60
2018-08-04T05:31:00.483Z,22.70
2018-08-04T05:33:29.025Z,22.80
2018-08-04T05:35:57.462Z,22.90
2018-08-04T05:38:25.951Z,23.00
2018-08-04T05:40:54.816Z,23.10
2018-08-04T05:43:24.359Z,23.10
2018-08-04T05:45:53.534Z,23.10
2018-08-04T05:48:21.974Z,23.10
2018-08-04T05:50:50.817Z,23.20
2018-08-04T05:53:19.253Z,23.30
2018-08-04T05:55:47.778Z,23.40
2018-08-04T05:58:16.522Z,23.50
2018-08-04T06:00:45.163Z,23.70
2018-08-04T06:03:13.644Z,23.80
2018-08-04T06:05:43.356Z,24.00
2018-08-04T06:08:12.009Z,24.00
2018-08-04T06:10:40.748Z,24.10
2018-08-04T06:13:09.268Z,24.20
2018-08-04T06:15:38.153Z,24.30
2018-08-04T06:18:06.730Z,24.40
2018-08-04T06:20:35.827Z,24.30
2018-08-04T06:23:04.262Z,24.40
2018-08-04T06:25:32.772Z,24.50
2018-08-04T06:28:01.320Z,24.70
2018-08-04T06:30:30.002Z,24.70
2018-08-04T06:32:58.418Z,24.60
2018-08-04T06:35:27.065Z,24.80
2018-08-04T06:37:55.694Z,24.90
2018-08-04T06:42:52.455Z,25.20
2018-08-04T06:45:21.081Z,25.10
2018-08-04T06:47:50.578Z,25.10
2018-08-04T06:50:19.065Z,25.20
2018-08-04T06:52:47.951Z,25.30
2018-08-04T06:55:16.692Z,25.40
2018-08-04T06:57:45.185Z,25.30
2018-08-04T07:00:13.711Z,25.40
2018-08-04T07:02:42.858Z,25.40
2018-08-04T07:05:11.610Z,25.50
2018-08-04T07:07:40.208Z,25.60
2018-08-04T07:10:08.904Z,25.70
2018-08-04T07:12:37.458Z,26.00
2018-08-04T07:15:06.293Z,26.10
2018-08-04T07:17:34.797Z,26.20
2018-08-04T07:20:03.257Z,26.20
2018-08-04T07:22:31.808Z,26.20
2018-08-04T07:25:00.782Z,26.30
2018-08-04T07:27:29.212Z,26.20
2018-08-04T07:32:26.003Z,26.70
2018-08-04T07:34:54.822Z,26.90
2018-08-04T07:37:23.228Z,27.10
2018-08-04T07:39:51.658Z,27.30
2018-08-04T07:42:20.216Z,27.30
2018-08-04T07:44:48.658Z,27.30
2018-08-04T07:47:17.185Z,27.40
2018-08-04T07:49:46.318Z,27.30
2018-08-04T07:52:14.762Z,27.40
2018-08-04T07:54:43.168Z,27.70
2018-08-04T07:57:11.667Z,27.80
2018-08-04T07:59:40.189Z,28.30
2018-08-04T08:02:09.067Z,28.70
2018-08-04T08:04:37.623Z,29.00
2018-08-04T08:07:06.402Z,28.80
2018-08-04T08:09:35.093Z,28.70
2018-08-04T08:14:32.712Z,29.60
2018-08-04T08:17:01.119Z,30.00
2018-08-04T08:19:29.763Z,30.30
2018-08-04T08:21:58.287Z,30.50
2018-08-04T08:24:27.076Z,30.80
2018-08-04T08:26:55.784Z,30.50
2018-08-04T08:29:24.265Z,30.70
2018-08-04T08:31:53.100Z,30.30
2018-08-04T08:34:22.632Z,30.80
2018-08-04T08:36:51.684Z,31.20
2018-08-04T08:39:20.292Z,31.50
2018-08-04T08:44:17.784Z,32.20
2018-08-04T08:46:46.647Z,32.70
2018-08-04T08:49:15.495Z,32.50
2018-08-04T08:51:44.836Z,32.30
2018-08-04T08:54:13.553Z,32.30
2018-08-04T08:56:42.507Z,32.70
2018-08-04T08:59:11.043Z,32.60
2018-08-04T09:01:39.782Z,32.80
2018-08-04T09:04:08.445Z,32.80
2018-08-04T09:06:37.021Z,32.40
2018-08-04T09:09:08.136Z,32.40
2018-08-04T09:11:36.758Z,32.60
2018-08-04T09:14:05.244Z,32.60
2018-08-04T09:19:02.185Z,33.20
2018-08-04T09:21:30.818Z,33.40
2018-08-04T09:23:59.256Z,33.40
2018-08-04T09:26:28.634Z,33.60
2018-08-04T09:28:57.126Z,33.60
2018-08-04T09:31:25.806Z,34.30
2018-08-04T09:33:54.321Z,34.70
2018-08-04T09:36:22.755Z,35.00
2018-08-04T09:38:51.248Z,34.70
2018-08-04T09:41:19.709Z,34.30
2018-08-04T09:43:48.404Z,34.10
2018-08-04T09:46:17.042Z,34.30
2018-08-04T09:48:46.501Z,35.00
2018-08-04T09:51:14.978Z,35.10
2018-08-04T09:53:43.840Z,35.20
2018-08-04T09:56:12.427Z,35.30
2018-08-04T09:58:40.958Z,34.60
2018-08-04T10:01:14.865Z,34.00
2018-08-04T10:03:43.876Z,33.90
2018-08-04T10:06:12.351Z,34.10
2018-08-04T10:08:40.781Z,34.40
2018-08-04T10:11:09.369Z,34.40
2018-08-04T10:13:38.319Z,34.00
2018-08-04T10:16:06.934Z,33.90
2018-08-04T10:21:05.558Z,34.60
2018-08-04T10:23:34.740Z,34.80
2018-08-04T10:26:03.795Z,35.40
2018-08-04T10:28:32.212Z,35.00
2018-08-04T10:31:01.301Z,34.80
2018-08-04T10:33:29.773Z,34.50
2018-08-04T10:35:58.335Z,34.70
2018-08-04T10:38:26.844Z,34.80
2018-08-04T10:40:55.379Z,34.90
2018-08-04T10:43:24.597Z,34.90
2018-08-04T10:45:53.684Z,34.90
2018-08-04T10:48:22.353Z,34.80
2018-08-04T10:50:50.794Z,34.60
2018-08-04T10:55:47.555Z,34.40
2018-08-04T10:58:16.826Z,34.50
2018-08-04T11:00:45.333Z,34.60
2018-08-04T11:03:13.908Z,34.70
2018-08-04T11:05:42.817Z,35.40
2018-08-04T11:08:11.310Z,35.40
2018-08-04T11:10:40.007Z,35.20
2018-08-04T11:13:08.841Z,34.90
2018-08-04T11:15:37.416Z,35.10
2018-08-04T11:18:06.077Z,35.10
2018-08-04T11:20:35.030Z,35.50
2018-08-04T11:23:03.490Z,35.80
2018-08-04T11:25:32.052Z,35.70
2018-08-04T11:28:00.989Z,35.50
2018-08-04T11:30:29.430Z,35.70
2018-08-04T11:32:58.010Z,35.80
2018-08-04T11:35:26.560Z,36.30
2018-08-04T11:37:55.103Z,36.20
2018-08-04T11:40:23.744Z,35.80
2018-08-04T11:42:52.191Z,36.30
2018-08-04T11:45:20.627Z,36.10
2018-08-04T11:47:49.077Z,35.90
2018-08-04T11:50:17.673Z,36.00
2018-08-04T11:52:46.739Z,36.00
2018-08-04T11:55:15.343Z,36.10
2018-08-04T11:57:43.827Z,35.80
2018-08-04T12:00:12.469Z,35.90
2018-08-04T12:02:41.566Z,35.50
2018-08-04T12:05:10.074Z,35.80
2018-08-04T12:07:39.581Z,36.20
2018-08-04T12:10:08.380Z,36.30
2018-08-04T12:12:36.896Z,36.50
2018-08-04T12:15:05.815Z,36.70
2018-08-04T12:17:34.381Z,36.20
2018-08-04T12:20:04.302Z,35.90
2018-08-04T12:25:01.115Z,36.00
2018-08-04T12:27:29.567Z,36.00
2018-08-04T12:29:58.646Z,36.00
2018-08-04T12:32:27.818Z,35.60
2018-08-04T12:34:56.254Z,35.60
2018-08-04T12:37:24.760Z,35.80
2018-08-04T12:39:53.430Z,35.60
2018-08-04T12:42:22.891Z,35.50
2018-08-04T12:44:51.984Z,35.70
2018-08-04T12:47:20.529Z,35.70
2018-08-04T12:49:49.012Z,35.40
2018-08-04T12:52:17.587Z,35.80
2018-08-04T12:54:46.249Z,36.30
2018-08-04T12:57:14.761Z,36.40
2018-08-04T12:59:43.579Z,36.20
2018-08-04T13:02:12.529Z,36.50
2018-08-04T13:04:41.094Z,36.80
2018-08-04T13:07:09.750Z,36.50
2018-08-04T13:09:38.210Z,36.30
2018-08-04T13:12:06.884Z,36.30
2018-08-04T13:14:35.358Z,36.00
2018-08-04T13:17:04.005Z,35.90
2018-08-04T13:19:32.575Z,35.90
2018-08-04T13:22:01.226Z,35.80
2018-08-04T13:24:29.687Z,36.10
2018-08-04T13:26:58.278Z,36.30
2018-08-04T13:29:27.059Z,36.20
2018-08-04T13:31:55.590Z,36.30
2018-08-04T13:34:24.330Z,35.80
2018-08-04T13:36:52.945Z,35.50
2018-08-04T13:39:21.452Z,35.30
2018-08-04T13:41:50.264Z,35.50
2018-08-04T13:44:18.949Z,35.80
2018-08-04T13:46:47.469Z,35.80
2018-08-04T13:49:15.930Z,35.70
2018-08-04T13:51:44.479Z,35.70
2018-08-04T13:54:13.016Z,35.60
2018-08-04T13:56:41.479Z,35.80
2018-08-04T13:59:09.920Z,35.90
2018-08-04T14:01:38.379Z,35.60
2018-08-04T14:04:06.967Z,35.30
2018-08-04T14:06:35.405Z,35.30
2018-08-04T14:09:05.332Z,35.30
2018-08-04T14:11:34.183Z,35.30
2018-08-04T14:14:03.589Z,35.10
2018-08-04T14:16:32.246Z,35.00
2018-08-04T14:19:01.409Z,35.00
2018-08-04T14:21:30.803Z,34.90
2018-08-04T14:23:59.431Z,34.70
2018-08-04T14:26:27.953Z,34.80
2018-08-04T14:28:56.465Z,34.70
2018-08-04T14:31:25.203Z,34.70
2018-08-04T14:33:53.915Z,34.70
2018-08-04T14:36:22.441Z,34.80
2018-08-04T14:38:51.496Z,34.90
2018-08-04T14:41:19.965Z,34.80
2018-08-04T14:43:48.532Z,34.60
2018-08-04T14:46:17.571Z,34.70
2018-08-04T14:48:46.278Z,34.60
2018-08-04T14:51:15.912Z,34.50
2018-08-04T14:53:44.354Z,34.40
2018-08-04T14:56:13.605Z,34.60
2018-08-04T14:58:42.102Z,34.70
2018-08-04T15:01:10.846Z,34.60
2018-08-04T15:03:40.011Z,34.70
2018-08-04T15:06:09.250Z,34.70
2018-08-04T15:08:37.715Z,34.70
2018-08-04T15:11:06.817Z,34.70
2018-08-04T15:13:36.132Z,34.50
2018-08-04T15:16:05.496Z,34.70
2018-08-04T15:18:33.995Z,34.50
2018-08-04T15:21:02.491Z,34.40
2018-08-04T15:23:31.075Z,34.30
2018-08-04T15:25:59.661Z,34.30
2018-08-04T15:28:28.382Z,34.20
2018-08-04T15:30:56.888Z,34.20
2018-08-04T15:33:25.354Z,34.20
2018-08-04T15:35:53.934Z,34.20
2018-08-04T15:38:23.898Z,34.30
2018-08-04T15:40:52.357Z,34.20
2018-08-04T15:43:21.243Z,34.20
2018-08-04T15:45:51.000Z,34.10
2018-08-04T15:48:19.540Z,33.90
2018-08-04T15:50:48.062Z,33.80
2018-08-04T15:53:16.785Z,33.80
2018-08-04T15:55:45.434Z,30.60
2018-08-04T15:58:14.085Z,25.40
2018-08-04T16:00:42.703Z,25.00
2018-08-04T16:03:11.258Z,24.50
2018-08-04T16:05:39.862Z,24.80
2018-08-04T16:08:09.133Z,25.60
2018-08-04T16:10:37.677Z,26.50
2018-08-04T16:13:06.132Z,27.00
2018-08-04T16:15:34.757Z,27.30
2018-08-04T16:18:03.301Z,27.40
2018-08-04T16:20:31.962Z,27.80
2018-08-04T16:23:00.753Z,28.10
2018-08-04T16:25:29.257Z,28.20
2018-08-04T16:27:57.943Z,28.50
2018-08-04T16:30:26.822Z,28.70
2018-08-04T16:32:55.757Z,28.80
2018-08-04T16:35:24.190Z,28.90
2018-08-04T16:37:52.924Z,28.90
2018-08-04T16:40:21.609Z,29.30
2018-08-04T16:42:50.138Z,29.50
2018-08-04T16:45:18.643Z,29.60
2018-08-04T16:47:47.153Z,29.60
2018-08-04T16:50:15.712Z,29.80
2018-08-04T16:52:44.538Z,29.90
2018-08-04T16:55:13.415Z,30.10
2018-08-04T16:57:42.069Z,30.50
2018-08-04T17:00:10.976Z,30.70
2018-08-04T17:02:39.573Z,30.80
2018-08-04T17:05:08.354Z,30.80
2018-08-04T17:07:36.837Z,30.80
2018-08-04T17:10:05.364Z,31.10
2018-08-04T17:12:33.857Z,31.50
2018-08-04T17:15:02.421Z,31.80
2018-08-04T17:17:31.225Z,32.10
2018-08-04T17:19:59.816Z,32.10
2018-08-04T17:22:28.892Z,32.10
2018-08-04T17:24:57.392Z,32.10
2018-08-04T17:27:25.944Z,32.10
2018-08-04T17:29:54.534Z,32.00
2018-08-04T17:32:25.298Z,32.00
2018-08-04T17:34:53.731Z,32.00
2018-08-04T17:37:22.283Z,31.90
2018-08-04T17:39:50.798Z,31.90
2018-08-04T17:42:19.882Z,31.90
2018-08-04T17:44:48.317Z,31.90
2018-08-04T17:47:18.065Z,31.90
2018-08-04T17:49:46.757Z,31.80
2018-08-04T17:52:15.515Z,31.80
2018-08-04T17:54:44.130Z,31.70
2018-08-04T17:57:12.805Z,31.70
2018-08-04T17:59:42.009Z,31.60
2018-08-04T18:02:10.434Z,31.60
2018-08-04T18:04:39.187Z,31.50
2018-08-04T18:07:07.795Z,31.50
2018-08-04T18:09:36.233Z,31.40
2018-08-04T18:12:04.864Z,31.40
2018-08-04T18:14:33.929Z,31.30
2018-08-04T18:17:02.381Z,31.30
2018-08-04T18:19:30.899Z,31.20
2018-08-04T18:21:59.384Z,31.10
2018-08-04T18:24:27.837Z,31.10
2018-08-04T18:26:56.884Z,30.90
2018-08-04T18:29:25.440Z,30.90
2018-08-04T18:31:53.967Z,30.80
2018-08-04T18:34:22.460Z,30.70
2018-08-04T18:36:51.145Z,30.70
2018-08-04T18:39:19.691Z,30.60
2018-08-04T18:41:48.221Z,30.50
2018-08-04T18:44:16.782Z,30.40
2018-08-04T18:46:45.606Z,30.30
2018-08-04T18:49:14.331Z,30.20
2018-08-04T18:51:42.881Z,30.10
2018-08-04T18:54:12.110Z,30.00
2018-08-04T18:56:40.601Z,29.80
2018-08-04T18:59:09.958Z,29.70
2018-08-04T19:01:38.442Z,29.50
2018-08-04T19:04:06.894Z,29.50
2018-08-04T19:06:35.813Z,29.40
2018-08-04T19:09:06.829Z,29.20
2018-08-04T19:11:35.490Z,29.00
2018-08-04T19:14:03.909Z,29.00
2018-08-04T19:16:32.445Z,28.90
2018-08-04T19:19:00.974Z,28.90
2018-08-04T19:21:29.798Z,28.80
2018-08-04T19:23:58.276Z,28.80
2018-08-04T19:26:26.755Z,28.70
2018-08-04T19:28:55.234Z,28.50
2018-08-04T19:31:24.295Z,28.30
2018-08-04T19:33:53.136Z,28.20
2018-08-04T19:36:21.826Z,28.20
2018-08-04T19:38:50.660Z,28.10
2018-08-04T19:41:19.178Z,28.10
2018-08-04T19:43:47.681Z,28.00
2018-08-04T19:46:16.701Z,28.00
2018-08-04T19:48:45.213Z,28.00
2018-08-04T19:51:13.797Z,28.10
2018-08-04T19:53:42.329Z,28.00
2018-08-04T19:56:10.793Z,27.90
2018-08-04T19:58:39.328Z,27.90
2018-08-04T20:01:07.824Z,27.80
2018-08-04T20:03:36.326Z,27.60
2018-08-04T20:06:05.695Z,27.50
2018-08-04T20:08:34.100Z,27.60
2018-08-04T20:11:03.190Z,27.60
2018-08-04T20:13:31.730Z,27.70
2018-08-04T20:16:00.176Z,27.70
2018-08-04T20:18:28.709Z,27.70
2018-08-04T20:20:57.958Z,27.60
2018-08-04T20:23:26.402Z,27.60
2018-08-04T20:25:55.507Z,27.60
2018-08-04T20:28:24.116Z,27.60
2018-08-04T20:30:52.608Z,27.60
2018-08-04T20:33:21.240Z,27.60
2018-08-04T20:35:49.701Z,27.60
2018-08-04T20:38:18.636Z,27.50
2018-08-04T20:40:47.640Z,27.50
2018-08-04T20:43:16.194Z,27.50
2018-08-04T20:46:01.506Z,27.50
2018-08-04T20:48:30.098Z,27.50
2018-08-04T20:51:09.904Z,27.50
2018-08-04T20:53:50.854Z,27.50
2018-08-04T20:56:20.115Z,27.50
2018-08-04T20:58:55.434Z,27.40
2018-08-04T21:01:46.665Z,27.40
2018-08-04T21:06:43.448Z,27.30
2018-08-04T21:09:12.182Z,27.20
2018-08-04T21:11:50.870Z,27.20
2018-08-04T21:14:20.821Z,27.10
2018-08-04T21:16:50.413Z,27.10
2018-08-04T21:19:20.461Z,26.90
2018-08-04T21:21:49.146Z,26.60
2018-08-04T21:24:19.163Z,26.40
2018-08-04T21:26:48.558Z,26.50
2018-08-04T21:29:17.256Z,26.50
2018-08-04T21:39:13.706Z,26.20
2018-08-04T21:41:43.729Z,26.20
2018-08-04T21:44:12.600Z,26.30
2018-08-04T21:46:44.325Z,26.20
2018-08-04T21:49:13.301Z,26.10
2018-08-04T21:51:44.165Z,26.00
2018-08-04T21:54:13.705Z,26.10
2018-08-04T21:56:42.932Z,26.10
2018-08-04T21:59:11.736Z,26.00
2018-08-04T22:01:44.601Z,25.90
2018-08-04T22:04:13.252Z,25.80
2018-08-04T22:06:54.095Z,25.70
2018-08-04T22:09:24.583Z,25.70
2018-08-04T22:11:53.280Z,25.60
2018-08-04T22:14:21.780Z,25.50
2018-08-04T22:16:50.442Z,25.40
2018-08-04T22:19:19.171Z,25.50
2018-08-04T22:21:47.766Z,25.70
2018-08-04T22:24:16.692Z,25.70
2018-08-04T22:26:45.202Z,25.60
2018-08-04T22:29:13.832Z,25.60
2018-08-04T22:31:42.638Z,25.70
2018-08-04T22:34:11.273Z,25.70
2018-08-04T22:36:39.852Z,25.70
2018-08-04T22:39:08.721Z,25.70
2018-08-04T22:41:37.168Z,25.70
2018-08-04T22:44:05.873Z,25.70
2018-08-04T22:46:34.296Z,25.80
2018-08-04T22:49:02.940Z,25.80
2018-08-04T22:51:31.956Z,25.80
2018-08-04T22:54:00.452Z,25.80
2018-08-04T22:56:28.905Z,25.80
2018-08-04T22:58:57.614Z,25.80
2018-08-04T23:03:54.275Z,25.70
2018-08-04T23:08:50.942Z,25.60
2018-08-04T23:11:19.402Z,25.60
2018-08-04T23:13:47.997Z,25.60
2018-08-04T23:16:16.518Z,25.60
2018-08-04T23:18:45.132Z,25.50
2018-08-04T23:21:13.747Z,25.50
2018-08-04T23:23:42.843Z,25.50
2018-08-04T23:28:39.504Z,25.50
2018-08-04T23:31:08.056Z,25.50
2018-08-04T23:33:37.390Z,25.50
2018-08-04T23:36:06.013Z,25.40
2018-08-04T23:38:34.442Z,25.40
2018-08-04T23:41:02.985Z,25.40
2018-08-04T23:43:32.203Z,25.40
2018-08-04T23:46:00.734Z,25.40
2018-08-04T23:48:29.411Z,25.30
2018-08-04T23:50:58.136Z,25.20
2018-08-04T23:53:26.573Z,25.20
2018-08-04T23:55:55.261Z,25.20
2018-08-04T23:58:23.738Z,25.10
